Time;durP1;ratioP1;P1;durP2;ratioP2;P2;SDS_P1;SDS_P2;PMS_P1;PMS_P2;Temp;Humidity;BMP_temperature;BMP_pressure;BME280_temperature;BME280_humidity;BME280_pressure;Samples;Min_cycle;Max_cycle;Signal;HPM_P1;HPM_P2
2022/10/17 00:02:10;;;;;;;15.15;13.85;;;;;;;;;;5217508;28;20280;-83
2022/10/17 00:04:40;;;;;;;12.57;11.40;;;;;;;;;;5216424;28;20021;-83
2022/10/17 00:07:11;;;;;;;11.52;10.55;;;;;;;;;;5216347;28;20263;-83
2022/10/17 00:09:42;;;;;;;13.80;12.45;;;;;;;;;;5232372;28;20017;-84
2022/10/17 00:12:12;;;;;;;13.27;12.02;;;;;;;;;;5232948;28;20030;-84
2022/10/17 00:14:42;;;;;;;9.30;8.57;;;;;;;;;;5215878;28;20029;-84
2022/10/17 00:17:14;;;;;;;11.93;10.67;;;;;;;;;;5217088;28;20361;-83
2022/10/17 00:19:44;;;;;;;11.52;10.48;;;;;;;;;;5217435;28;20268;-84
2022/10/17 00:22:14;;;;;;;10.88;9.90;;;;;;;;;;5216601;28;20037;-83
2022/10/17 00:24:45;;;;;;;10.93;10.02;;;;;;;;;;5216718;28;20028;-84
2022/10/17 00:27:15;;;;;;;13.10;9.57;;;;;;;;;;5217728;28;20021;-83
2022/10/17 00:29:49;;;;;;;11.37;9.47;;;;;;;;;;5232889;28;20025;-83
2022/10/17 00:32:19;;;;;;;11.63;10.50;;;;;;;;;;5218442;28;20268;-83
2022/10/17 00:34:49;;;;;;;11.25;10.43;;;;;;;;;;5216143;28;20493;-82
2022/10/17 00:37:19;;;;;;;10.20;9.10;;;;;;;;;;5215928;28;20021;-82
2022/10/17 00:39:50;;;;;;;10.43;9.33;;;;;;;;;;5217449;28;20437;-83
2022/10/17 00:42:20;;;;;;;9.52;8.70;;;;;;;;;;5217512;28;20288;-83
2022/10/17 00:44:59;;;;;;;11.48;10.43;;;;;;;;;;5215829;28;20140;-83
2022/10/17 00:47:30;;;;;;;8.03;7.43;;;;;;;;;;5216669;28;20479;-84
2022/10/17 00:50:00;;;;;;;10.75;9.90;;;;;;;;;;5217654;28;20022;-84
2022/10/17 00:52:31;;;;;;;12.88;11.93;;;;;;;;;;5217874;28;20099;-84
2022/10/17 00:55:03;;;;;;;10.02;9.05;;;;;;;;;;5214438;28;20053;-84
2022/10/17 00:57:33;;;;;;;8.27;7.68;;;;;;;;;;5232090;28;20345;-83
2022/10/17 01:00:05;;;;;;;9.98;9.15;;;;;;;;;;5215942;28;20056;-84
2022/10/17 01:02:36;;;;;;;9.88;8.95;;;;;;;;;;5233163;28;20028;-84
2022/10/17 01:05:06;;;;;;;8.75;8.13;;;;;;;;;;5231565;28;20021;-85
2022/10/17 01:07:37;;;;;;;11.57;10.75;;;;;;;;;;5217967;28;20052;-84
2022/10/17 01:10:09;;;;;;;9.27;8.68;;;;;;;;;;5233735;28;20089;-84
2022/10/17 01:12:54;;;;;;;12.00;10.85;;;;;;;;;;5218497;28;20040;-84
2022/10/17 01:15:43;;;;;;;8.60;7.93;;;;;;;;;;5214820;28;20018;-84
2022/10/17 01:18:31;;;;;;;11.13;10.13;;;;;;;;;;5215866;28;20057;-84
2022/10/17 01:21:08;;;;;;;9.93;8.98;;;;;;;;;;5215731;28;20030;-84
2022/10/17 01:23:57;;;;;;;9.77;8.88;;;;;;;;;;5214453;28;20044;-84
2022/10/17 01:26:33;;;;;;;10.07;9.27;;;;;;;;;;5215753;28;20028;-83
2022/10/17 01:29:13;;;;;;;9.05;8.27;;;;;;;;;;5230507;28;20017;-84
2022/10/17 01:31:47;;;;;;;9.90;8.20;;;;;;;;;;5214870;28;20441;-84
2022/10/17 01:34:20;;;;;;;10.23;9.40;;;;;;;;;;5212564;28;20039;-84
2022/10/17 01:36:55;;;;;;;10.43;9.48;;;;;;;;;;5213323;28;20025;-84
2022/10/17 01:39:25;;;;;;;9.98;9.15;;;;;;;;;;5213691;28;20056;-84
2022/10/17 01:41:56;;;;;;;10.10;9.23;;;;;;;;;;5215108;28;20375;-84
2022/10/17 01:44:31;;;;;;;10.90;10.02;;;;;;;;;;5214173;28;20053;-83
2022/10/17 01:47:06;;;;;;;10.82;9.75;;;;;;;;;;5215663;28;20376;-84
2022/10/17 01:49:39;;;;;;;11.85;10.90;;;;;;;;;;5214456;28;20022;-84
2022/10/17 01:52:15;;;;;;;12.52;9.82;;;;;;;;;;5230434;28;20013;-84
2022/10/17 01:54:48;;;;;;;11.85;9.98;;;;;;;;;;5228639;28;20430;-84
2022/10/17 01:57:22;;;;;;;11.90;10.82;;;;;;;;;;5212816;28;20021;-84
2022/10/17 01:59:54;;;;;;;9.65;8.88;;;;;;;;;;5229865;28;20073;-84
2022/10/17 02:02:25;;;;;;;10.65;9.63;;;;;;;;;;5215349;28;20025;-83
2022/10/17 02:04:56;;;;;;;11.25;10.20;;;;;;;;;;5213323;28;20032;-84
2022/10/17 02:07:26;;;;;;;9.93;9.23;;;;;;;;;;5213983;28;20017;-83
2022/10/17 02:09:56;;;;;;;11.43;10.53;;;;;;;;;;5213683;28;20017;-83
2022/10/17 02:12:26;;;;;;;9.33;8.67;;;;;;;;;;5212903;28;20272;-84
2022/10/17 02:15:05;;;;;;;10.77;9.93;;;;;;;;;;5213011;28;20264;-84
2022/10/17 02:17:41;;;;;;;9.63;8.80;;;;;;;;;;5229155;28;20360;-84
2022/10/17 02:20:23;;;;;;;11.70;9.38;;;;;;;;;;5229302;28;20025;-83
2022/10/17 02:23:03;;;;;;;11.23;10.20;;;;;;;;;;5213972;28;20139;-83
2022/10/17 02:26:08;;;;;;;12.35;9.45;;;;;;;;;;5228732;28;20388;-84
2022/10/17 02:28:46;;;;;;;11.43;10.10;;;;;;;;;;5149097;28;20027;-83
2022/10/17 02:31:23;;;;;;;10.38;9.65;;;;;;;;;;5202260;28;20033;-83
2022/10/17 02:33:56;;;;;;;9.02;8.43;;;;;;;;;;5213688;28;20032;-84
2022/10/17 02:36:34;;;;;;;8.50;7.72;;;;;;;;;;5213814;28;20108;-84
2022/10/17 02:39:06;;;;;;;10.35;9.40;;;;;;;;;;5214843;28;20109;-83
2022/10/17 02:41:37;;;;;;;9.80;9.00;;;;;;;;;;5214973;28;20021;-83
2022/10/17 02:44:09;;;;;;;9.27;8.57;;;;;;;;;;5213017;28;20025;-83
2022/10/17 02:46:40;;;;;;;9.02;8.32;;;;;;;;;;5215036;28;20024;-84
2022/10/17 02:49:19;;;;;;;10.63;9.77;;;;;;;;;;5214377;28;20104;-84
2022/10/17 02:51:55;;;;;;;10.82;9.90;;;;;;;;;;5213832;28;20018;-83
2022/10/17 02:54:37;;;;;;;9.23;8.48;;;;;;;;;;5211038;28;20036;-84
2022/10/17 02:57:31;;;;;;;11.13;10.25;;;;;;;;;;5213803;28;20025;-83
2022/10/17 03:00:03;;;;;;;15.20;9.15;;;;;;;;;;5209977;28;20095;-83
2022/10/17 03:02:37;;;;;;;11.50;10.60;;;;;;;;;;5212530;28;20372;-83
2022/10/17 03:05:08;;;;;;;9.30;8.65;;;;;;;;;;5211817;28;20014;-83
2022/10/17 03:07:38;;;;;;;11.30;10.43;;;;;;;;;;5212883;28;20365;-84
2022/10/17 03:10:09;;;;;;;13.68;11.95;;;;;;;;;;5212567;28;20036;-81
2022/10/17 03:12:39;;;;;;;11.18;10.27;;;;;;;;;;5212499;28;20021;-83
2022/10/17 03:15:09;;;;;;;10.27;9.27;;;;;;;;;;5211250;28;20021;-83
2022/10/17 03:17:40;;;;;;;13.07;10.10;;;;;;;;;;5227868;28;20513;-83
2022/10/17 03:20:10;;;;;;;10.32;9.52;;;;;;;;;;5210963;28;20025;-83
2022/10/17 03:22:40;;;;;;;9.82;8.93;;;;;;;;;;5211557;28;20029;-83
2022/10/17 03:25:10;;;;;;;10.83;9.93;;;;;;;;;;5211098;28;20021;-83
2022/10/17 03:27:41;;;;;;;9.90;9.13;;;;;;;;;;5213223;28;20264;-82
2022/10/17 03:30:11;;;;;;;12.90;12.02;;;;;;;;;;5211271;28;20286;-83
2022/10/17 03:32:41;;;;;;;10.03;9.30;;;;;;;;;;5212469;28;20029;-83
2022/10/17 03:35:11;;;;;;;8.97;8.27;;;;;;;;;;5211917;28;20273;-83
2022/10/17 03:37:41;;;;;;;14.57;9.57;;;;;;;;;;5212652;28;20339;-83
2022/10/17 03:40:12;;;;;;;8.88;8.00;;;;;;;;;;5210746;28;20021;-83
2022/10/17 03:42:42;;;;;;;10.82;8.27;;;;;;;;;;5227373;28;20112;-83
2022/10/17 03:45:12;;;;;;;15.20;10.80;;;;;;;;;;5210162;28;20337;-84
2022/10/17 03:47:42;;;;;;;18.03;9.97;;;;;;;;;;5212647;28;20018;-83
2022/10/17 03:50:13;;;;;;;9.40;8.80;;;;;;;;;;5227221;28;20260;-83
2022/10/17 03:52:47;;;;;;;9.15;8.20;;;;;;;;;;5212978;28;20283;-83
2022/10/17 03:55:17;;;;;;;8.80;7.90;;;;;;;;;;5210514;28;20472;-84
2022/10/17 03:57:48;;;;;;;8.17;7.57;;;;;;;;;;5212171;28;20031;-84
2022/10/17 04:00:18;;;;;;;9.40;8.80;;;;;;;;;;5212201;28;20291;-83
2022/10/17 04:02:48;;;;;;;9.65;8.90;;;;;;;;;;5211808;28;20706;-84
2022/10/17 04:05:18;;;;;;;8.40;7.20;;;;;;;;;;5211357;28;20045;-84
2022/10/17 04:07:48;;;;;;;7.67;7.13;;;;;;;;;;5210691;28;20272;-84
2022/10/17 04:10:19;;;;;;;8.40;7.77;;;;;;;;;;5211488;28;20259;-84
2022/10/17 04:12:49;;;;;;;12.37;7.43;;;;;;;;;;5211298;28;20285;-83
2022/10/17 04:15:19;;;;;;;9.23;7.07;;;;;;;;;;5211069;28;20266;-84
2022/10/17 04:17:49;;;;;;;9.23;7.40;;;;;;;;;;5212019;28;20327;-84
2022/10/17 04:22:52;;;;;;;8.27;7.55;;;;;;;;;;5227434;28;20037;-64
2022/10/17 04:25:22;;;;;;;7.80;7.30;;;;;;;;;;5222957;28;20067;-63
2022/10/17 04:27:53;;;;;;;9.77;8.90;;;;;;;;;;5223893;28;20116;-63
2022/10/17 04:30:23;;;;;;;8.25;7.45;;;;;;;;;;5223585;28;20013;-64
2022/10/17 04:32:53;;;;;;;8.73;6.30;;;;;;;;;;5223702;28;20503;-64
2022/10/17 04:35:24;;;;;;;8.35;7.78;;;;;;;;;;5224387;28;20025;-65
2022/10/17 04:37:54;;;;;;;8.25;7.55;;;;;;;;;;5227266;28;20460;-64
2022/10/17 04:40:24;;;;;;;9.30;7.95;;;;;;;;;;5228953;28;20052;-64
2022/10/17 04:42:55;;;;;;;11.43;9.05;;;;;;;;;;5227385;28;20037;-63
2022/10/17 04:45:25;;;;;;;9.30;8.30;;;;;;;;;;5227422;28;20017;-64
2022/10/17 04:47:56;;;;;;;8.15;7.30;;;;;;;;;;5227257;28;20031;-64
2022/10/17 04:50:26;;;;;;;8.93;8.32;;;;;;;;;;5227201;28;20020;-64
2022/10/17 04:52:56;;;;;;;9.70;8.77;;;;;;;;;;5226878;28;20078;-64
2022/10/17 04:55:27;;;;;;;8.30;7.80;;;;;;;;;;5227058;28;20021;-64
2022/10/17 04:57:57;;;;;;;8.05;7.35;;;;;;;;;;5227406;28;20028;-64
2022/10/17 05:00:27;;;;;;;8.80;7.90;;;;;;;;;;5230014;28;20094;-64
2022/10/17 05:02:57;;;;;;;10.07;7.30;;;;;;;;;;5228943;28;20110;-63
2022/10/17 05:05:28;;;;;;;7.93;7.25;;;;;;;;;;5228289;28;20017;-64
2022/10/17 05:07:58;;;;;;;8.18;6.60;;;;;;;;;;5228361;28;20025;-64
2022/10/17 05:10:28;;;;;;;8.15;7.55;;;;;;;;;;5228145;28;20017;-65
2022/10/17 05:12:59;;;;;;;11.80;7.00;;;;;;;;;;5241378;28;20069;-63
2022/10/17 05:15:29;;;;;;;7.85;7.28;;;;;;;;;;5248025;28;20412;-64
2022/10/17 05:17:59;;;;;;;14.85;8.38;;;;;;;;;;5248647;28;20028;-64
2022/10/17 05:20:30;;;;;;;8.98;8.18;;;;;;;;;;5249450;28;20033;-64
2022/10/17 05:23:00;;;;;;;8.55;7.95;;;;;;;;;;5248120;28;20050;-63
2022/10/17 05:25:30;;;;;;;8.55;7.80;;;;;;;;;;5250809;28;20033;-64
2022/10/17 05:28:01;;;;;;;8.23;7.72;;;;;;;;;;5249340;28;20013;-64
2022/10/17 05:30:31;;;;;;;7.07;6.25;;;;;;;;;;5248641;28;20646;-63
2022/10/17 05:33:01;;;;;;;9.50;8.48;;;;;;;;;;5247988;28;20115;-64
2022/10/17 05:35:31;;;;;;;6.50;6.05;;;;;;;;;;5249309;28;20511;-64
2022/10/17 05:38:02;;;;;;;9.52;8.70;;;;;;;;;;5248144;28;20016;-63
2022/10/17 05:40:32;;;;;;;8.07;7.47;;;;;;;;;;5247643;28;20501;-64
2022/10/17 05:43:02;;;;;;;8.38;7.68;;;;;;;;;;5248272;28;20017;-64
2022/10/17 05:45:36;;;;;;;14.13;12.80;;;;;;;;;;5247621;28;20020;-64
2022/10/17 05:48:07;;;;;;;8.10;7.50;;;;;;;;;;5247536;28;20016;-63
2022/10/17 05:50:38;;;;;;;8.27;7.57;;;;;;;;;;5247564;28;20024;-64
2022/10/17 05:53:08;;;;;;;7.75;7.20;;;;;;;;;;5247636;28;20027;-64
2022/10/17 05:55:38;;;;;;;8.57;7.88;;;;;;;;;;5247221;28;20101;-64
2022/10/17 05:58:09;;;;;;;7.57;7.03;;;;;;;;;;5246123;28;20025;-66
2022/10/17 06:00:39;;;;;;;7.82;7.10;;;;;;;;;;5246971;28;20074;-65
2022/10/17 06:03:10;;;;;;;8.00;7.50;;;;;;;;;;5248641;28;20111;-64
2022/10/17 06:05:41;;;;;;;8.80;8.15;;;;;;;;;;5247420;28;20017;-64
2022/10/17 06:08:11;;;;;;;10.05;9.32;;;;;;;;;;5248176;28;20020;-65
2022/10/17 06:10:41;;;;;;;11.95;10.85;;;;;;;;;;5249044;28;20012;-67
2022/10/17 06:13:12;;;;;;;12.40;11.25;;;;;;;;;;5247701;28;20028;-65
2022/10/17 06:15:43;;;;;;;13.60;12.55;;;;;;;;;;5248064;28;20035;-67
2022/10/17 06:18:13;;;;;;;9.93;9.13;;;;;;;;;;5247156;28;20489;-65
2022/10/17 06:20:44;;;;;;;10.75;9.60;;;;;;;;;;5248282;28;20035;-65
2022/10/17 06:23:14;;;;;;;8.55;7.55;;;;;;;;;;5247512;28;20029;-65
2022/10/17 06:25:44;;;;;;;8.65;7.95;;;;;;;;;;5247515;28;20078;-67
2022/10/17 06:28:15;;;;;;;6.93;6.50;;;;;;;;;;5247928;28;20023;-66
2022/10/17 06:30:45;;;;;;;11.35;9.98;;;;;;;;;;5247640;28;20594;-66
2022/10/17 06:33:16;;;;;;;14.52;13.20;;;;;;;;;;5247999;28;20074;-66
2022/10/17 06:35:50;;;;;;;13.05;12.02;;;;;;;;;;5247665;28;20028;-65
2022/10/17 06:38:21;;;;;;;14.43;8.90;;;;;;;;;;5248252;28;20562;-66
2022/10/17 06:40:53;;;;;;;8.43;7.82;;;;;;;;;;5247872;28;20028;-66
2022/10/17 06:43:23;;;;;;;11.30;5.85;;;;;;;;;;5247217;28;20115;-66
2022/10/17 06:45:53;;;;;;;6.85;6.40;;;;;;;;;;5246642;28;20119;-66
2022/10/17 06:48:24;;;;;;;7.35;6.85;;;;;;;;;;5231077;28;20044;-66
2022/10/17 06:50:57;;;;;;;10.60;6.47;;;;;;;;;;5247604;28;20024;-66
2022/10/17 06:53:28;;;;;;;6.35;5.72;;;;;;;;;;5249622;28;20017;-65
2022/10/17 06:56:03;;;;;;;7.75;7.07;;;;;;;;;;5248535;28;20431;-66
2022/10/17 06:58:34;;;;;;;6.93;6.32;;;;;;;;;;5248332;28;20048;-65
2022/10/17 07:01:05;;;;;;;7.57;6.55;;;;;;;;;;5247393;28;20073;-66
2022/10/17 07:03:36;;;;;;;5.97;5.57;;;;;;;;;;5245986;28;20024;-65
2022/10/17 07:06:06;;;;;;;7.30;6.80;;;;;;;;;;5246749;28;20384;-66
2022/10/17 07:08:37;;;;;;;5.97;5.38;;;;;;;;;;5246866;28;20024;-66
2022/10/17 07:11:11;;;;;;;7.30;6.15;;;;;;;;;;5246088;28;20024;-66
2022/10/17 07:13:41;;;;;;;10.57;8.98;;;;;;;;;;5245903;28;20043;-65
2022/10/17 07:16:13;;;;;;;13.43;8.38;;;;;;;;;;5246568;28;20024;-66
2022/10/17 07:18:47;;;;;;;8.20;7.50;;;;;;;;;;5245080;28;20025;-65
2022/10/17 07:21:18;;;;;;;9.38;8.43;;;;;;;;;;5244881;28;20040;-65
2022/10/17 07:23:48;;;;;;;8.90;8.20;;;;;;;;;;5246697;28;20452;-65
2022/10/17 07:26:18;;;;;;;12.85;8.90;;;;;;;;;;5246548;28;20021;-64
2022/10/17 07:28:51;;;;;;;10.13;9.27;;;;;;;;;;5245887;28;20024;-65
2022/10/17 07:31:21;;;;;;;9.70;8.88;;;;;;;;;;5245897;28;20021;-65
2022/10/17 07:33:52;;;;;;;11.65;9.57;;;;;;;;;;5247486;28;20050;-66
2022/10/17 07:36:22;;;;;;;10.80;7.97;;;;;;;;;;5250714;28;20030;-66
2022/10/17 07:38:52;;;;;;;9.80;8.68;;;;;;;;;;5250185;28;20183;-66
2022/10/17 07:41:23;;;;;;;9.32;8.52;;;;;;;;;;5250710;28;20020;-66
2022/10/17 07:43:53;;;;;;;12.00;10.88;;;;;;;;;;5251749;28;20055;-66
2022/10/17 07:46:23;;;;;;;12.45;8.52;;;;;;;;;;5251163;28;20013;-66
2022/10/17 07:48:53;;;;;;;11.32;10.10;;;;;;;;;;5251177;28;20025;-66
2022/10/17 07:51:24;;;;;;;9.48;8.57;;;;;;;;;;5253578;28;20444;-65
2022/10/17 07:53:54;;;;;;;9.55;8.80;;;;;;;;;;5254237;28;20055;-64
2022/10/17 07:56:24;;;;;;;10.82;9.38;;;;;;;;;;5248026;28;20020;-64
2022/10/17 07:58:56;;;;;;;14.63;9.95;;;;;;;;;;5244772;28;20036;-65
2022/10/17 08:01:27;;;;;;;9.38;8.57;;;;;;;;;;5243744;28;20241;-65
2022/10/17 08:03:57;;;;;;;8.43;7.72;;;;;;;;;;5244406;28;20025;-67
2022/10/17 08:06:27;;;;;;;7.80;7.07;;;;;;;;;;5244724;28;20070;-65
2022/10/17 08:08:58;;;;;;;14.63;7.50;;;;;;;;;;5244432;28;20020;-64
2022/10/17 08:11:28;;;;;;;6.95;6.43;;;;;;;;;;5245744;28;20028;-64
2022/10/17 08:13:59;;;;;;;12.02;7.72;;;;;;;;;;5248531;28;20020;-64
2022/10/17 08:16:29;;;;;;;6.63;6.20;;;;;;;;;;5248749;28;20468;-65
2022/10/17 08:18:59;;;;;;;5.65;5.10;;;;;;;;;;5248119;28;20503;-65
2022/10/17 08:21:30;;;;;;;6.50;6.07;;;;;;;;;;5247630;28;20028;-64
2022/10/17 08:24:01;;;;;;;5.93;3.72;;;;;;;;;;5248308;28;20085;-64
2022/10/17 08:26:31;;;;;;;4.65;4.32;;;;;;;;;;5248538;28;20137;-65
2022/10/17 08:29:02;;;;;;;5.80;5.30;;;;;;;;;;5248372;28;20112;-69
2022/10/17 08:31:32;;;;;;;6.75;5.15;;;;;;;;;;5249585;28;20395;-66
2022/10/17 08:34:02;;;;;;;5.45;5.10;;;;;;;;;;5247666;28;20055;-63
2022/10/17 08:36:33;;;;;;;4.78;4.18;;;;;;;;;;5248063;28;20116;-65
2022/10/17 08:39:03;;;;;;;9.70;4.82;;;;;;;;;;5248099;28;20024;-65
2022/10/17 08:41:46;;;;;;;5.95;5.45;;;;;;;;;;5247951;28;20093;-66
2022/10/17 08:44:24;;;;;;;6.35;5.80;;;;;;;;;;5247504;28;20024;-65
2022/10/17 08:46:57;;;;;;;7.13;6.53;;;;;;;;;;5247827;28;20067;-65
2022/10/17 08:49:31;;;;;;;11.77;6.93;;;;;;;;;;5248037;28;20519;-66
2022/10/17 08:52:05;;;;;;;5.47;4.82;;;;;;;;;;5248159;28;20023;-64
2022/10/17 08:54:39;;;;;;;5.82;5.45;;;;;;;;;;5247462;28;20043;-63
2022/10/17 08:57:14;;;;;;;6.32;5.35;;;;;;;;;;5247632;28;20159;-64
2022/10/17 08:59:49;;;;;;;5.28;4.88;;;;;;;;;;5247603;28;20035;-64
2022/10/17 09:02:32;;;;;;;5.20;4.75;;;;;;;;;;5247576;28;20476;-64
2022/10/17 09:05:21;;;;;;;5.43;5.20;;;;;;;;;;5247194;28;20024;-62
2022/10/17 09:08:09;;;;;;;6.78;5.10;;;;;;;;;;5248805;28;20041;-64
2022/10/17 09:10:46;;;;;;;5.57;4.57;;;;;;;;;;5247707;28;20035;-66
2022/10/17 09:13:17;;;;;;;4.03;3.83;;;;;;;;;;5250587;28;20288;-66
2022/10/17 09:15:56;;;;;;;5.85;4.97;;;;;;;;;;5248412;28;20028;-64
2022/10/17 09:18:30;;;;;;;8.30;5.28;;;;;;;;;;5247516;28;20089;-64
2022/10/17 09:21:19;;;;;;;4.97;4.65;;;;;;;;;;5247284;28;20028;-64
2022/10/17 09:23:51;;;;;;;5.78;5.40;;;;;;;;;;5246646;28;20027;-64
2022/10/17 09:26:23;;;;;;;5.53;5.20;;;;;;;;;;5247167;28;20017;-64
2022/10/17 09:28:58;;;;;;;5.88;5.38;;;;;;;;;;5247324;28;20430;-64
2022/10/17 09:31:31;;;;;;;5.70;5.35;;;;;;;;;;5247076;28;20013;-65
2022/10/17 09:34:01;;;;;;;4.90;4.57;;;;;;;;;;5246446;28;20031;-65
2022/10/17 09:36:33;;;;;;;6.82;6.18;;;;;;;;;;5247349;28;20368;-64
2022/10/17 09:39:11;;;;;;;4.72;4.32;;;;;;;;;;5247648;28;20032;-65
2022/10/17 09:41:47;;;;;;;4.95;4.65;;;;;;;;;;5247723;28;20020;-65
2022/10/17 09:44:22;;;;;;;7.35;5.90;;;;;;;;;;5247992;28;20396;-65
2022/10/17 09:47:03;;;;;;;13.02;6.28;;;;;;;;;;5249221;28;20024;-64
2022/10/17 09:49:41;;;;;;;6.05;5.65;;;;;;;;;;5247346;28;20083;-66
2022/10/17 09:52:13;;;;;;;7.25;5.38;;;;;;;;;;5249290;28;20384;-64
2022/10/17 09:54:45;;;;;;;8.13;5.90;;;;;;;;;;5249820;28;20025;-65
2022/10/17 09:57:17;;;;;;;6.00;5.50;;;;;;;;;;5248909;28;20016;-67
2022/10/17 09:59:47;;;;;;;7.50;6.80;;;;;;;;;;5246573;28;20013;-63
2022/10/17 10:02:19;;;;;;;7.13;6.63;;;;;;;;;;5247828;28;20027;-66
2022/10/17 10:04:54;;;;;;;6.63;6.13;;;;;;;;;;5249880;28;20109;-64
2022/10/17 10:07:25;;;;;;;6.05;5.30;;;;;;;;;;5248389;28;20445;-64
2022/10/17 10:09:57;;;;;;;10.30;7.78;;;;;;;;;;5246741;28;20055;-64
2022/10/17 10:12:29;;;;;;;8.50;7.05;;;;;;;;;;5245203;28;20025;-64
2022/10/17 10:14:59;;;;;;;14.05;7.90;;;;;;;;;;5246463;28;20024;-64
2022/10/17 10:17:37;;;;;;;7.50;7.00;;;;;;;;;;5246932;28;20080;-65
2022/10/17 10:20:24;;;;;;;6.90;6.22;;;;;;;;;;5240145;22;20491;-63
2022/10/17 10:23:03;;;;;;;5.93;5.53;;;;;;;;;;5207606;28;20305;-62
2022/10/17 10:25:34;;;;;;;7.30;6.63;;;;;;;;;;5207241;28;20555;-63
2022/10/17 10:28:15;;;;;;;7.72;7.18;;;;;;;;;;5206355;28;20021;-62
2022/10/17 10:30:50;;;;;;;9.35;8.48;;;;;;;;;;5207085;28;20021;-62
2022/10/17 10:33:21;;;;;;;8.10;5.30;;;;;;;;;;5206595;28;20025;-62
2022/10/17 10:36:02;;;;;;;9.07;8.48;;;;;;;;;;5206768;28;20111;-61
2022/10/17 10:38:33;;;;;;;8.00;6.85;;;;;;;;;;5207366;28;20044;-63
2022/10/17 10:41:06;;;;;;;8.68;7.78;;;;;;;;;;5206587;28;20051;-62
2022/10/17 10:43:39;;;;;;;7.68;6.97;;;;;;;;;;5206832;28;20128;-62
2022/10/17 10:46:20;;;;;;;9.30;8.48;;;;;;;;;;5206784;28;20015;-62
2022/10/17 10:48:55;;;;;;;9.30;8.48;;;;;;;;;;5207059;28;20023;-62
2022/10/17 10:51:31;;;;;;;8.60;7.90;;;;;;;;;;5206312;28;20396;-61
2022/10/17 10:54:04;;;;;;;8.18;6.82;;;;;;;;;;5224649;28;20025;-61
2022/10/17 10:56:40;;;;;;;7.82;7.32;;;;;;;;;;5206546;28;20040;-61
2022/10/17 10:59:19;;;;;;;16.30;8.77;;;;;;;;;;5206686;28;20080;-64
2022/10/17 11:02:03;;;;;;;9.27;8.40;;;;;;;;;;5207515;28;20484;-62
2022/10/17 11:04:41;;;;;;;11.93;8.00;;;;;;;;;;5206109;28;20147;-61
2022/10/17 11:07:23;;;;;;;9.18;8.38;;;;;;;;;;5225020;28;20123;-61
2022/10/17 11:13:16;;;;;;;9.57;8.77;;;;;;;;;;5224949;28;20392;-61
2022/10/17 11:15:50;;;;;;;10.20;8.93;;;;;;;;;;5206643;28;20029;-61
2022/10/17 11:18:29;;;;;;;6.93;6.40;;;;;;;;;;5223943;28;20059;-61
2022/10/17 11:21:30;;;;;;;14.38;8.70;;;;;;;;;;5206222;28;20031;-61
2022/10/17 11:27:01;;;;;;;10.68;9.93;;;;;;;;;;5224385;28;20021;-61
2022/10/17 11:29:34;;;;;;;7.65;7.15;;;;;;;;;;5205712;28;20025;-60
2022/10/17 11:32:14;;;;;;;11.48;9.20;;;;;;;;;;5206522;28;20024;-61
2022/10/17 11:34:46;;;;;;;11.10;10.00;;;;;;;;;;5206460;28;20496;-62
2022/10/17 11:37:18;;;;;;;10.85;9.93;;;;;;;;;;5223764;28;20025;-61
2022/10/17 11:39:52;;;;;;;9.88;9.15;;;;;;;;;;5224304;28;20017;-60
2022/10/17 11:42:23;;;;;;;11.90;9.52;;;;;;;;;;5206595;28;20021;-60
2022/10/17 11:45:00;;;;;;;10.95;10.00;;;;;;;;;;5208022;28;20362;-61
2022/10/17 11:47:33;;;;;;;9.55;8.52;;;;;;;;;;5213929;28;20366;-62
2022/10/17 11:50:19;;;;;;;10.68;9.65;;;;;;;;;;5212641;28;20112;-61
2022/10/17 11:52:58;;;;;;;10.23;8.65;;;;;;;;;;5230327;28;20028;-60
2022/10/17 11:55:30;;;;;;;10.10;9.10;;;;;;;;;;5212491;28;20032;-62
2022/10/17 11:58:15;;;;;;;14.77;10.45;;;;;;;;;;5212814;28;20070;-60
2022/10/17 12:00:51;;;;;;;11.82;10.70;;;;;;;;;;5212674;28;20160;-62
2022/10/17 12:03:40;;;;;;;9.88;9.15;;;;;;;;;;5212423;28;20085;-61
2022/10/17 12:06:21;;;;;;;12.88;10.77;;;;;;;;;;5230978;28;20021;-62
2022/10/17 12:09:03;;;;;;;15.30;8.63;;;;;;;;;;5229728;28;20020;-63
2022/10/17 12:11:53;;;;;;;8.52;7.70;;;;;;;;;;5196262;28;20102;-61
2022/10/17 12:14:33;;;;;;;10.52;8.52;;;;;;;;;;5213047;28;20032;-62
2022/10/17 12:17:04;;;;;;;10.82;8.82;;;;;;;;;;5213159;28;20037;-63
2022/10/17 12:19:36;;;;;;;10.38;7.65;;;;;;;;;;5213096;28;20174;-63
2022/10/17 12:22:20;;;;;;;12.63;8.30;;;;;;;;;;5212760;28;20025;-65
2022/10/17 12:25:01;;;;;;;20.38;10.25;;;;;;;;;;5213011;28;20056;-63
2022/10/17 12:27:37;;;;;;;9.93;8.07;;;;;;;;;;5213426;28;20360;-62
2022/10/17 12:30:10;;;;;;;10.65;9.85;;;;;;;;;;5213211;28;20024;-62
2022/10/17 12:32:59;;;;;;;8.77;7.88;;;;;;;;;;5213102;28;20021;-63
2022/10/17 12:35:31;;;;;;;7.85;7.15;;;;;;;;;;5213150;28;20107;-62
2022/10/17 12:38:12;;;;;;;11.13;9.02;;;;;;;;;;5212519;28;20023;-62
2022/10/17 12:40:42;;;;;;;8.60;8.00;;;;;;;;;;5213196;28;20464;-62
2022/10/17 12:43:13;;;;;;;10.38;8.60;;;;;;;;;;5213151;28;20067;-62
2022/10/17 12:46:02;;;;;;;9.35;8.43;;;;;;;;;;5213262;28;20365;-62
2022/10/17 12:48:33;;;;;;;;;;;;;;;;;;5231760;28;20025;-62
2022/10/17 12:51:09;;;;;;;8.97;7.40;;;;;;;;;;5197753;28;20183;-61
2022/10/17 12:53:46;;;;;;;9.40;8.70;;;;;;;;;;5192161;28;20394;-63
2022/10/17 12:56:18;;;;;;;7.88;7.18;;;;;;;;;;5191305;28;20219;-64
2022/10/17 12:58:49;;;;;;;11.00;9.18;;;;;;;;;;5188613;28;20087;-64
2022/10/17 13:01:30;;;;;;;10.90;10.00;;;;;;;;;;5190418;28;20426;-66
2022/10/17 13:04:04;;;;;;;9.43;7.90;;;;;;;;;;5208124;28;20048;-64
2022/10/17 13:06:42;;;;;;;13.02;8.75;;;;;;;;;;5191694;28;20017;-66
2022/10/17 13:09:25;;;;;;;9.63;8.27;;;;;;;;;;5209316;28;20143;-65
2022/10/17 13:11:57;;;;;;;9.38;8.65;;;;;;;;;;5208934;28;20021;-65
2022/10/17 13:14:27;;;;;;;8.73;8.07;;;;;;;;;;5227152;28;20180;-67
2022/10/17 13:16:58;;;;;;;9.13;8.25;;;;;;;;;;5209093;28;20025;-65
2022/10/17 13:19:29;;;;;;;9.88;8.05;;;;;;;;;;5226834;28;20036;-63
2022/10/17 13:22:01;;;;;;;8.73;8.07;;;;;;;;;;5208305;28;20083;-63
2022/10/17 13:24:35;;;;;;;8.68;7.95;;;;;;;;;;5208701;28;20024;-63
2022/10/17 13:27:20;;;;;;;9.30;8.43;;;;;;;;;;5208532;28;20053;-62
2022/10/17 13:29:50;;;;;;;11.90;8.18;;;;;;;;;;5208868;28;20071;-63
2022/10/17 13:32:21;;;;;;;21.50;9.60;;;;;;;;;;5208527;28;20481;-62
2022/10/17 13:35:09;;;;;;;8.10;6.75;;;;;;;;;;5208496;28;20009;-64
2022/10/17 13:37:44;;;;;;;6.50;5.95;;;;;;;;;;5209643;28;20017;-63
2022/10/17 13:40:16;;;;;;;7.80;7.10;;;;;;;;;;5208483;28;20013;-63
2022/10/17 13:42:49;;;;;;;8.55;6.55;;;;;;;;;;5203048;28;20036;-64
2022/10/17 13:45:23;;;;;;;9.27;7.95;;;;;;;;;;5215069;28;20013;-63
2022/10/17 13:47:54;;;;;;;12.82;8.43;;;;;;;;;;5205001;28;20084;-62
2022/10/17 13:50:26;;;;;;;8.20;7.60;;;;;;;;;;5187218;28;20482;-61
2022/10/17 13:53:14;;;;;;;7.55;6.85;;;;;;;;;;5187215;28;20148;-64
2022/10/17 13:56:02;;;;;;;10.30;9.25;;;;;;;;;;5205225;28;20021;-63
2022/10/17 13:58:59;;;;;;;6.75;6.30;;;;;;;;;;5187313;28;20334;-62
2022/10/17 14:01:29;;;;;;;6.65;6.25;;;;;;;;;;5182454;28;20083;-62
2022/10/17 14:04:00;;;;;;;8.98;6.30;;;;;;;;;;5187196;28;20055;-62
2022/10/17 14:06:30;;;;;;;6.72;6.25;;;;;;;;;;5205028;28;20013;-63
2022/10/17 14:09:05;;;;;;;7.88;7.18;;;;;;;;;;5204145;28;20091;-61
2022/10/17 14:11:38;;;;;;;15.32;7.22;;;;;;;;;;5187034;28;20018;-62
2022/10/17 14:14:16;;;;;;;8.48;7.55;;;;;;;;;;5186621;28;20029;-62
2022/10/17 14:16:47;;;;;;;8.10;7.35;;;;;;;;;;5186133;28;20021;-63
2022/10/17 14:19:23;;;;;;;8.18;7.47;;;;;;;;;;5187131;28;20021;-63
2022/10/17 14:21:55;;;;;;;7.50;6.70;;;;;;;;;;5187121;28;20025;-63
2022/10/17 14:24:27;;;;;;;9.38;6.40;;;;;;;;;;5185545;28;20116;-62
2022/10/17 14:26:58;;;;;;;6.50;5.95;;;;;;;;;;5187031;28;20013;-63
2022/10/17 14:29:49;;;;;;;7.32;6.72;;;;;;;;;;5186900;28;20116;-62
2022/10/17 14:32:19;;;;;;;6.97;6.38;;;;;;;;;;5186940;28;20104;-62
2022/10/17 14:34:54;;;;;;;7.45;6.72;;;;;;;;;;5186226;28;20117;-63
2022/10/17 14:37:25;;;;;;;9.55;7.65;;;;;;;;;;5186659;28;20120;-63
2022/10/17 14:39:57;;;;;;;6.43;5.97;;;;;;;;;;5185974;28;20113;-62
2022/10/17 14:42:28;;;;;;;9.07;6.57;;;;;;;;;;5186448;28;20146;-62
2022/10/17 14:45:04;;;;;;;8.20;7.70;;;;;;;;;;5415081;22;20060;-81
2022/10/17 14:47:34;;;;;;;7.65;7.05;;;;;;;;;;5249089;28;20024;-82
2022/10/17 14:50:11;;;;;;;8.57;7.72;;;;;;;;;;5261069;28;20519;-83
2022/10/17 14:52:57;;;;;;;7.47;6.85;;;;;;;;;;5260341;28;20036;-81
2022/10/17 14:55:28;;;;;;;7.00;6.57;;;;;;;;;;5238162;28;20035;-82
2022/10/17 14:57:58;;;;;;;12.43;8.65;;;;;;;;;;5220745;28;20040;-82
2022/10/17 15:00:28;;;;;;;7.72;7.18;;;;;;;;;;5239630;28;20039;-82
2022/10/17 15:02:59;;;;;;;6.95;6.32;;;;;;;;;;5221732;28;20148;-82
2022/10/17 15:05:29;;;;;;;9.07;8.37;;;;;;;;;;5236297;28;20017;-82
2022/10/17 15:07:59;;;;;;;8.83;8.13;;;;;;;;;;5235660;28;20351;-82
2022/10/17 15:10:32;;;;;;;8.50;7.57;;;;;;;;;;5235158;28;20350;-82
2022/10/17 15:13:02;;;;;;;11.20;7.45;;;;;;;;;;5234361;28;20317;-82
2022/10/17 15:15:33;;;;;;;8.43;7.57;;;;;;;;;;5215404;28;20025;-83
2022/10/17 15:18:04;;;;;;;8.25;7.45;;;;;;;;;;5235310;28;20084;-82
2022/10/17 15:20:34;;;;;;;5.85;5.28;;;;;;;;;;5235670;28;20064;-81
2022/10/17 15:23:04;;;;;;;7.75;7.05;;;;;;;;;;5217131;28;20454;-82